Time;durP1;ratioP1;P1;durP2;ratioP2;P2;SDS_P1;SDS_P2;PMS_P1;PMS_P2;Temp;Humidity;BMP_temperature;BMP_pressure;BME280_temperature;BME280_humidity;BME280_pressure;Samples;Min_cycle;Max_cycle;Signal;HPM_P1;HPM_P2
2022/03/24 00:02:10;;;;;;;32.38;19.45;;;4.90;99.90;;;;;;5048525;28;20052;-76
2022/03/24 00:04:36;;;;;;;37.13;20.05;;;4.90;99.90;;;;;;5050673;28;20074;-73
2022/03/24 00:07:02;;;;;;;42.40;20.15;;;4.80;99.90;;;;;;5041014;28;20163;-75
2022/03/24 00:09:28;;;;;;;39.72;19.60;;;4.80;99.90;;;;;;5036316;28;20033;-75
2022/03/24 00:11:55;;;;;;;44.10;22.23;;;4.70;99.90;;;;;;5051359;28;20148;-76
2022/03/24 00:14:21;;;;;;;33.78;20.00;;;4.70;99.90;;;;;;5056389;28;20045;-75
2022/03/24 00:16:48;;;;;;;39.28;21.88;;;4.70;99.90;;;;;;5054101;28;20040;-74
2022/03/24 00:19:16;;;;;;;42.25;21.20;;;4.70;99.90;;;;;;5052385;28;20033;-74
2022/03/24 00:21:43;;;;;;;43.45;22.42;;;4.60;99.90;;;;;;5036913;28;20028;-74
2022/03/24 00:24:08;;;;;;;41.78;22.92;;;4.60;99.90;;;;;;5040303;28;20036;-73
2022/03/24 00:26:35;;;;;;;48.08;21.27;;;4.50;99.90;;;;;;5055431;28;20035;-74
2022/03/24 00:29:02;;;;;;;40.80;21.02;;;4.50;99.90;;;;;;5054263;28;20366;-74
2022/03/24 00:31:28;;;;;;;35.20;20.17;;;4.50;99.90;;;;;;5050323;28;20150;-75
2022/03/24 00:33:54;;;;;;;;;;;4.40;99.90;;;;;;5033687;28;20037;-75
2022/03/24 00:36:20;;;;;;;42.15;22.50;;;4.40;99.90;;;;;;5050529;28;19925;-74
2022/03/24 00:38:46;;;;;;;38.03;19.00;;;4.40;99.90;;;;;;5038926;28;20049;-74
2022/03/24 00:41:12;;;;;;;41.28;22.40;;;4.40;99.90;;;;;;5034245;28;20044;-75
2022/03/24 00:43:39;;;;;;;42.28;22.77;;;4.30;99.90;;;;;;5050749;28;20102;-74
2022/03/24 00:46:05;;;;;;;42.78;23.67;;;4.30;99.90;;;;;;5049356;28;20036;-74
2022/03/24 00:48:31;;;;;;;41.92;21.85;;;4.20;99.90;;;;;;5047890;28;20045;-74
2022/03/24 00:50:57;;;;;;;44.22;22.92;;;4.30;99.90;;;;;;5024922;28;20070;-76
2022/03/24 00:53:23;;;;;;;46.65;24.63;;;4.30;99.90;;;;;;5051177;28;20055;-76
2022/03/24 00:55:49;;;;;;;41.80;23.23;;;4.40;99.90;;;;;;5004517;28;20041;-76
2022/03/24 00:58:15;;;;;;;46.60;23.02;;;4.50;99.90;;;;;;5002032;28;20048;-73
2022/03/24 01:00:42;;;;;;;47.17;24.83;;;4.50;99.90;;;;;;5056871;28;20048;-73
2022/03/24 01:03:09;;;;;;;49.70;25.80;;;4.60;99.90;;;;;;5052543;28;20055;-74
2022/03/24 01:05:37;;;;;;;51.83;24.77;;;4.70;99.90;;;;;;5062955;28;20047;-74
2022/03/24 01:08:09;;;;;;;57.83;28.45;;;4.70;99.90;;;;;;5042097;28;20412;-75
2022/03/24 01:10:36;;;;;;;54.15;25.42;;;4.70;99.90;;;;;;5045623;28;20051;-75
2022/03/24 01:13:02;;;;;;;53.30;27.27;;;4.90;99.90;;;;;;5040776;28;20051;-74
2022/03/24 01:15:30;;;;;;;44.22;25.50;;;4.70;99.90;;;;;;5071183;28;20393;-76
2022/03/24 01:17:59;;;;;;;58.80;25.85;;;4.70;99.90;;;;;;5054372;28;20366;-73
2022/03/24 01:20:26;;;;;;;48.10;25.38;;;4.60;99.90;;;;;;5051215;28;20048;-75
2022/03/24 01:22:52;;;;;;;52.63;24.25;;;4.70;99.90;;;;;;5039960;28;20059;-74
2022/03/24 01:25:18;;;;;;;45.33;26.95;;;4.60;99.90;;;;;;5036373;28;20040;-74
2022/03/24 01:27:44;;;;;;;53.40;26.15;;;4.50;99.90;;;;;;5036417;28;20052;-75
2022/03/24 01:30:10;;;;;;;48.17;22.77;;;4.50;99.90;;;;;;5036382;28;20048;-74
2022/03/24 01:32:36;;;;;;;;;;;4.30;99.90;;;;;;5037292;28;20450;-75
2022/03/24 01:35:06;;;;;;;46.45;23.75;;;4.30;99.90;;;;;;5061897;28;19924;-74
2022/03/24 01:37:32;;;;;;;48.08;25.05;;;4.20;99.90;;;;;;5058985;28;20089;-75
2022/03/24 01:39:58;;;;;;;43.70;24.13;;;4.10;99.90;;;;;;5063181;28;20036;-75
2022/03/24 01:42:26;;;;;;;47.17;22.65;;;4.10;99.90;;;;;;5042245;28;20128;-75
2022/03/24 01:44:53;;;;;;;45.80;23.88;;;4.00;99.90;;;;;;5038194;28;20102;-75
2022/03/24 01:47:21;;;;;;;46.13;22.83;;;3.90;99.90;;;;;;5048011;28;20515;-76
2022/03/24 01:49:48;;;;;;;48.90;24.40;;;3.90;99.90;;;;;;5052913;28;20040;-74
2022/03/24 01:52:15;;;;;;;47.30;23.08;;;3.80;99.90;;;;;;5051317;28;20060;-74
2022/03/24 01:54:49;;;;;;;40.35;22.05;;;3.80;99.90;;;;;;5041681;28;20055;-77
2022/03/24 01:57:16;;;;;;;38.78;20.58;;;3.70;99.90;;;;;;5062735;28;20079;-74
2022/03/24 01:59:42;;;;;;;48.85;23.60;;;3.70;99.90;;;;;;5035566;28;20041;-75
2022/03/24 02:02:08;;;;;;;51.25;25.88;;;3.70;99.90;;;;;;5058301;28;20044;-74
2022/03/24 02:04:35;;;;;;;44.42;22.50;;;3.70;99.90;;;;;;5052187;28;20044;-74
2022/03/24 02:07:08;;;;;;;38.17;19.77;;;3.60;99.90;;;;;;5057055;28;20047;-74
2022/03/24 02:09:35;;;;;;;39.25;21.35;;;3.70;99.90;;;;;;5036282;28;20072;-74
2022/03/24 02:12:06;;;;;;;45.17;22.70;;;3.60;99.90;;;;;;5034965;28;20033;-74
2022/03/24 02:14:31;;;;;;;44.90;23.02;;;3.60;99.90;;;;;;5032694;28;20040;-74
2022/03/24 02:16:57;;;;;;;38.92;22.10;;;3.50;99.90;;;;;;5052765;28;20542;-75
2022/03/24 02:19:25;;;;;;;42.13;21.70;;;3.60;99.90;;;;;;5006101;28;20037;-75
2022/03/24 02:21:53;;;;;;;45.83;24.23;;;3.60;99.90;;;;;;5051456;28;20040;-74
2022/03/24 02:24:22;;;;;;;49.33;25.20;;;3.60;99.90;;;;;;5048728;28;20053;-75
2022/03/24 02:26:48;;;;;;;51.53;26.15;;;3.60;99.90;;;;;;5054746;28;20075;-75
2022/03/24 02:29:16;;;;;;;44.55;23.65;;;3.60;99.90;;;;;;5041435;28;20044;-74
2022/03/24 02:31:50;;;;;;;41.67;22.35;;;3.60;99.90;;;;;;5037287;28;20072;-74
2022/03/24 02:37:05;;;;;;;44.10;26.13;;;3.60;99.90;;;;;;5050928;28;20032;-74
2022/03/24 02:39:31;;;;;;;51.63;25.20;;;3.60;99.90;;;;;;5043496;28;20064;-75
2022/03/24 02:41:59;;;;;;;50.45;26.23;;;3.60;99.90;;;;;;5034938;28;20083;-75
2022/03/24 02:44:27;;;;;;;49.83;25.15;;;3.60;99.90;;;;;;5027214;28;20370;-76
2022/03/24 02:46:55;;;;;;;47.33;25.50;;;3.60;99.90;;;;;;5052845;28;20045;-74
2022/03/24 02:49:28;;;;;;;47.70;24.67;;;3.50;99.90;;;;;;5047958;28;20097;-74
2022/03/24 02:51:55;;;;;;;54.15;25.80;;;3.40;99.90;;;;;;5055257;28;20684;-75
2022/03/24 02:54:22;;;;;;;57.47;27.77;;;3.50;99.90;;;;;;5056397;28;20101;-75
2022/03/24 02:56:48;;;;;;;58.80;26.83;;;3.50;99.90;;;;;;5055172;28;20044;-74
2022/03/24 02:59:15;;;;;;;47.03;25.40;;;3.50;99.90;;;;;;5038647;28;20052;-76
2022/03/24 03:01:56;;;;;;;40.05;24.13;;;3.50;99.90;;;;;;5039878;28;20040;-75
2022/03/24 03:04:22;;;;;;;44.78;24.05;;;3.50;99.90;;;;;;5050298;28;20051;-76
2022/03/24 03:06:48;;;;;;;44.10;24.13;;;3.40;99.90;;;;;;5037823;28;20047;-75
2022/03/24 03:09:15;;;;;;;;;;;3.30;99.90;;;;;;5056572;28;20044;-75
2022/03/24 03:11:45;;;;;;;54.33;21.83;;;3.30;99.90;;;;;;5055539;28;20401;-75
2022/03/24 03:14:12;;;;;;;54.70;24.60;;;3.30;99.90;;;;;;5038555;28;20075;-75
2022/03/24 03:16:39;;;;;;;51.58;26.88;;;3.20;99.90;;;;;;5056868;28;20044;-75
2022/03/24 03:19:06;;;;;;;44.72;25.20;;;3.20;99.90;;;;;;5059840;28;20036;-76
2022/03/24 03:21:32;;;;;;;56.20;28.50;;;3.20;99.90;;;;;;5054277;28;20044;-74
2022/03/24 03:23:58;;;;;;;53.50;27.00;;;3.20;99.90;;;;;;5039723;28;20033;-75
2022/03/24 03:26:24;;;;;;;;;;;3.30;99.90;;;;;;5061222;28;20145;-75
2022/03/24 03:28:53;;;;;;;41.35;21.95;;;3.30;99.90;;;;;;5055662;28;19948;-75
2022/03/24 03:31:20;;;;;;;43.88;22.48;;;3.20;99.90;;;;;;5062002;28;20040;-74
2022/03/24 03:33:46;;;;;;;46.53;24.85;;;3.10;99.90;;;;;;5056895;28;20128;-75
2022/03/24 03:36:12;;;;;;;45.08;22.00;;;3.00;99.90;;;;;;5041844;28;20119;-75
2022/03/24 03:38:38;;;;;;;50.75;23.08;;;3.00;99.90;;;;;;5052990;28;20434;-74
2022/03/24 03:41:04;;;;;;;55.92;26.00;;;2.90;99.90;;;;;;5055005;28;20124;-76
2022/03/24 03:43:30;;;;;;;41.70;22.35;;;2.90;99.90;;;;;;5007848;28;20159;-75
2022/03/24 03:45:56;;;;;;;46.88;22.90;;;2.80;99.90;;;;;;5038759;28;20040;-75
2022/03/24 03:48:22;;;;;;;48.83;24.02;;;2.70;99.90;;;;;;5038114;28;20048;-74
2022/03/24 03:50:48;;;;;;;;;;;2.70;99.90;;;;;;5038930;28;20509;-76
2022/03/24 03:53:14;;;;;;;49.85;22.23;;;2.60;99.90;;;;;;5053089;28;19952;-75
2022/03/24 03:55:40;;;;;;;;;;;2.60;99.90;;;;;;5054990;28;20115;-74
2022/03/24 03:58:06;;;;;;;43.15;21.02;;;2.60;99.90;;;;;;5052327;28;20433;-74
2022/03/24 04:03:17;;;;;;;41.75;22.42;;;2.50;99.90;;;;;;5055765;28;20053;-73
2022/03/24 04:05:43;;;;;;;50.83;24.02;;;2.50;99.90;;;;;;5054895;28;20124;-74
2022/03/24 04:08:09;;;;;;;;;;;2.50;99.90;;;;;;5036892;28;20041;-75
2022/03/24 04:10:35;;;;;;;40.95;23.63;;;2.50;99.90;;;;;;5037170;28;19924;-74
2022/03/24 04:13:02;;;;;;;;;;;2.50;99.90;;;;;;5058993;28;20047;-74
2022/03/24 04:15:28;;;;;;;45.67;22.67;;;2.50;99.90;;;;;;5036929;28;19916;-74
2022/03/24 04:17:53;;;;;;;46.50;23.58;;;2.50;99.90;;;;;;5050021;28;20041;-75
2022/03/24 04:20:22;;;;;;;48.08;24.52;;;2.40;99.90;;;;;;5035991;28;20040;-74
2022/03/24 04:22:52;;;;;;;62.55;29.92;;;2.40;99.90;;;;;;5058551;28;20080;-76
2022/03/24 04:25:20;;;;;;;61.90;27.00;;;2.40;99.90;;;;;;5079638;28;20041;-74
2022/03/24 04:27:46;;;;;;;55.25;27.15;;;2.40;99.90;;;;;;5042816;28;20132;-74
2022/03/24 04:30:12;;;;;;;46.63;25.15;;;2.50;99.90;;;;;;5061424;28;20036;-75
2022/03/24 04:32:38;;;;;;;48.67;23.08;;;2.50;99.90;;;;;;5053228;28;20044;-74
2022/03/24 04:35:06;;;;;;;51.30;25.40;;;2.50;99.90;;;;;;5052995;28;20123;-75
2022/03/24 04:37:32;;;;;;;48.58;24.23;;;2.50;99.90;;;;;;5059658;28;20416;-75
2022/03/24 04:39:58;;;;;;;48.28;25.50;;;2.40;99.90;;;;;;5061579;28;20032;-73
2022/03/24 04:42:24;;;;;;;49.40;24.30;;;2.40;99.90;;;;;;5061274;28;20055;-74
2022/03/24 04:44:50;;;;;;;50.40;23.75;;;2.50;99.90;;;;;;5036991;28;20119;-75
2022/03/24 04:47:15;;;;;;;;;;;2.40;99.90;;;;;;5030075;28;20040;-75
2022/03/24 04:49:42;;;;;;;41.35;21.90;;;2.40;99.90;;;;;;5036242;28;20011;-75
2022/03/24 04:52:08;;;;;;;46.78;22.95;;;2.40;99.90;;;;;;5021783;28;20537;-75
2022/03/24 04:54:34;;;;;;;40.72;21.33;;;2.40;99.90;;;;;;5020501;28;20133;-74
2022/03/24 04:57:00;;;;;;;;;;;2.30;99.90;;;;;;5054355;28;20481;-74
2022/03/24 04:59:26;;;;;;;42.85;23.05;;;2.30;99.90;;;;;;5024481;28;20333;-74
2022/03/24 05:01:52;;;;;;;40.28;22.63;;;2.30;99.90;;;;;;5023400;28;20135;-74
2022/03/24 05:04:18;;;;;;;38.78;20.90;;;2.20;99.90;;;;;;5037487;28;20505;-75
2022/03/24 05:06:43;;;;;;;50.90;23.88;;;2.20;99.90;;;;;;5053906;28;20047;-75
2022/03/24 05:09:09;;;;;;;40.63;22.90;;;2.20;99.90;;;;;;5053484;28;20048;-75
2022/03/24 05:11:35;;;;;;;44.90;23.50;;;2.10;99.90;;;;;;5036445;28;20462;-75
2022/03/24 05:14:01;;;;;;;43.58;23.60;;;2.10;99.90;;;;;;5053807;28;20082;-74
2022/03/24 05:16:28;;;;;;;48.17;22.38;;;2.00;99.90;;;;;;5033756;28;20040;-74
2022/03/24 05:18:54;;;;;;;57.33;24.88;;;2.00;99.90;;;;;;5019860;28;20418;-74
2022/03/24 05:21:20;;;;;;;44.67;23.92;;;2.10;99.90;;;;;;5039354;28;20127;-73
2022/03/24 05:23:46;;;;;;;46.80;25.33;;;2.10;99.90;;;;;;5023550;28;20102;-75
2022/03/24 05:26:13;;;;;;;49.47;24.83;;;2.10;99.90;;;;;;5043548;28;20098;-74
2022/03/24 05:28:39;;;;;;;53.25;25.55;;;2.10;99.90;;;;;;5035394;28;20039;-75
2022/03/24 05:31:05;;;;;;;49.13;26.08;;;2.10;99.90;;;;;;5024020;28;20044;-76
2022/03/24 05:33:33;;;;;;;54.70;26.67;;;2.20;99.90;;;;;;5034645;28;20043;-75
2022/03/24 05:35:59;;;;;;;51.47;26.63;;;2.10;99.90;;;;;;5053309;28;20167;-75
2022/03/24 05:38:26;;;;;;;57.90;26.23;;;2.10;99.90;;;;;;5051873;28;20487;-75
2022/03/24 05:40:52;;;;;;;53.03;27.60;;;2.10;99.90;;;;;;5053467;28;20068;-75
2022/03/24 05:43:18;;;;;;;53.08;26.42;;;2.20;99.90;;;;;;5052083;28;20064;-75
2022/03/24 05:45:43;;;;;;;63.40;28.58;;;2.30;99.90;;;;;;5019984;28;20731;-74
2022/03/24 05:48:09;;;;;;;53.35;27.52;;;2.20;99.90;;;;;;5036351;28;21467;-74
2022/03/24 05:50:35;;;;;;;51.97;27.20;;;2.20;99.90;;;;;;5033984;28;20093;-74
2022/03/24 05:53:02;;;;;;;54.63;26.33;;;2.30;99.90;;;;;;5036926;28;20128;-77
2022/03/24 05:55:29;;;;;;;52.78;25.98;;;2.20;99.90;;;;;;5017936;28;20159;-75
2022/03/24 05:57:54;;;;;;;53.22;27.33;;;2.30;99.90;;;;;;5047546;28;20033;-75
2022/03/24 06:00:21;;;;;;;44.72;26.52;;;2.30;99.90;;;;;;5053129;28;20055;-74
2022/03/24 06:02:47;;;;;;;49.38;26.20;;;2.30;99.90;;;;;;5051498;28;20044;-76
2022/03/24 06:05:14;;;;;;;61.28;29.27;;;2.40;99.90;;;;;;5038717;28;20125;-74
2022/03/24 06:07:40;;;;;;;50.63;27.15;;;2.50;99.90;;;;;;5052391;28;20036;-75
2022/03/24 06:10:08;;;;;;;60.28;28.70;;;2.60;99.90;;;;;;5019022;28;20498;-75
2022/03/24 06:12:40;;;;;;;59.38;27.55;;;2.70;99.90;;;;;;5030752;28;22094;-75
2022/03/24 06:15:07;;;;;;;54.13;26.95;;;2.70;99.90;;;;;;5027448;28;20119;-74
2022/03/24 06:17:34;;;;;;;57.83;29.88;;;2.80;99.90;;;;;;5041742;28;20040;-75
2022/03/24 06:20:01;;;;;;;60.20;28.75;;;2.90;99.90;;;;;;5034339;28;20045;-75
2022/03/24 06:22:28;;;;;;;57.85;29.95;;;2.90;99.90;;;;;;5039740;28;20094;-74
2022/03/24 06:24:54;;;;;;;76.18;32.88;;;3.00;99.90;;;;;;5018528;28;20040;-74
2022/03/24 06:27:20;;;;;;;;;;;3.10;99.90;;;;;;5044990;28;20048;-76
2022/03/24 06:29:47;;;;;;;59.25;29.77;;;3.20;99.90;;;;;;5038864;28;20643;-74
2022/03/24 06:32:13;;;;;;;73.63;33.22;;;3.40;99.90;;;;;;5074206;28;20059;-75
2022/03/24 06:34:39;;;;;;;70.72;33.72;;;3.60;99.90;;;;;;5038518;28;20035;-76
2022/03/24 06:37:05;;;;;;;56.90;31.60;;;3.90;99.90;;;;;;5039215;28;20374;-74
2022/03/24 06:39:31;;;;;;;64.97;32.78;;;3.80;99.90;;;;;;5025832;28;20040;-75
2022/03/24 06:41:57;;;;;;;61.30;33.97;;;3.90;99.90;;;;;;5038865;28;20559;-74
2022/03/24 06:44:23;;;;;;;66.15;35.90;;;4.00;99.90;;;;;;5037926;28;20044;-74
2022/03/24 06:46:49;;;;;;;69.30;35.40;;;4.10;99.90;;;;;;5032495;28;20047;-73
2022/03/24 06:49:15;;;;;;;70.30;33.55;;;4.30;99.90;;;;;;5035133;28;20041;-74
2022/03/24 06:51:41;;;;;;;;;;;4.40;99.90;;;;;;5053717;28;20116;-74
2022/03/24 06:54:07;;;;;;;71.65;33.97;;;4.60;99.90;;;;;;5031738;28;20346;-74
2022/03/24 06:56:34;;;;;;;73.38;36.03;;;4.60;99.90;;;;;;5038469;28;20044;-75
2022/03/24 06:59:00;;;;;;;79.95;36.45;;;4.80;99.90;;;;;;5056011;28;20280;-76
2022/03/24 07:01:25;;;;;;;82.10;37.13;;;4.90;99.90;;;;;;5061389;28;20115;-74
2022/03/24 07:03:51;;;;;;;77.72;38.00;;;5.00;99.90;;;;;;5038740;28;20123;-75
2022/03/24 07:06:17;;;;;;;68.25;34.97;;;5.10;99.90;;;;;;5044197;28;20070;-74
2022/03/24 07:08:43;;;;;;;;;;;5.30;99.90;;;;;;5054291;28;20051;-74
2022/03/24 07:11:09;;;;;;;72.15;34.25;;;5.60;99.90;;;;;;5038732;28;20036;-76
2022/03/24 07:13:35;;;;;;;67.38;34.03;;;5.80;99.90;;;;;;5035603;28;20059;-75
2022/03/24 07:16:00;;;;;;;;;;;6.00;99.90;;;;;;5038799;28;20040;-76
2022/03/24 07:18:26;;;;;;;65.97;33.42;;;6.20;99.90;;;;;;5059449;28;20514;-74
2022/03/24 07:20:52;;;;;;;56.33;31.17;;;6.40;99.90;;;;;;5064863;28;20067;-75
2022/03/24 07:23:18;;;;;;;70.63;33.80;;;6.50;99.90;;;;;;5044642;28;20404;-75
2022/03/24 07:25:43;;;;;;;58.88;31.98;;;6.70;99.90;;;;;;5078396;28;20068;-75
2022/03/24 07:28:11;;;;;;;67.72;34.53;;;6.80;99.90;;;;;;5073667;28;20451;-75
2022/03/24 07:30:38;;;;;;;59.28;27.92;;;7.00;99.90;;;;;;5049191;28;20423;-76
2022/03/24 07:33:04;;;;;;;51.28;28.60;;;7.20;99.90;;;;;;5034666;28;20044;-75
2022/03/24 07:35:34;;;;;;;60.88;29.00;;;7.20;99.90;;;;;;5063983;28;20072;-75
2022/03/24 07:38:01;;;;;;;52.85;28.83;;;7.30;99.90;;;;;;5042688;28;20140;-76
2022/03/24 07:40:28;;;;;;;60.80;32.45;;;7.20;99.90;;;;;;5058497;28;20439;-76
2022/03/24 07:42:56;;;;;;;63.63;30.48;;;7.20;99.90;;;;;;5073741;28;20048;-75
2022/03/24 07:45:23;;;;;;;57.88;31.58;;;7.10;99.90;;;;;;5039385;28;20118;-76
2022/03/24 07:48:13;;;;;;;56.95;30.15;;;7.30;99.90;;;;;;5077382;28;20048;-75
2022/03/24 07:50:49;;;;;;;58.05;29.58;;;7.40;99.90;;;;;;5037470;28;20044;-75
2022/03/24 07:53:15;;;;;;;45.25;27.17;;;7.50;99.90;;;;;;5048287;28;20044;-74
2022/03/24 07:55:46;;;;;;;62.45;32.00;;;7.60;99.90;;;;;;5054977;28;20069;-75
2022/03/24 07:58:14;;;;;;;57.80;29.58;;;7.70;99.90;;;;;;5035754;28;20033;-75
2022/03/24 08:00:45;;;;;;;67.80;30.45;;;7.80;99.90;;;;;;5053853;28;20040;-74
2022/03/24 08:03:16;;;;;;;59.35;32.45;;;7.90;99.90;;;;;;5023680;28;20059;-75
2022/03/24 08:05:42;;;;;;;59.08;31.08;;;8.00;99.90;;;;;;5037501;28;20407;-74
2022/03/24 08:08:09;;;;;;;;;;;8.20;99.90;;;;;;5053361;28;20078;-76
2022/03/24 08:10:36;;;;;;;;;;;8.20;99.90;;;;;;5053532;28;20338;-75
2022/03/24 08:13:02;;;;;;;55.97;28.83;;;8.40;99.90;;;;;;5041354;28;20385;-75
2022/03/24 08:15:28;;;;;;;61.60;31.92;;;8.50;99.90;;;;;;5000046;28;20498;-75
2022/03/24 08:17:54;;;;;;;51.20;30.30;;;8.60;99.90;;;;;;5017204;28;20059;-75
2022/03/24 08:20:20;;;;;;;63.30;30.83;;;8.70;99.90;;;;;;5023816;28;20044;-76
2022/03/24 08:22:45;;;;;;;62.58;32.30;;;8.80;99.90;;;;;;5036982;28;20041;-75
2022/03/24 08:25:13;;;;;;;56.65;33.25;;;8.90;99.90;;;;;;5017908;28;20591;-76
2022/03/24 08:27:38;;;;;;;55.00;30.55;;;9.00;99.90;;;;;;5020822;28;20048;-74
2022/03/24 08:30:05;;;;;;;57.53;31.20;;;9.00;99.90;;;;;;5040744;28;20040;-75
2022/03/24 08:32:31;;;;;;;60.65;30.63;;;9.10;99.90;;;;;;5050535;28;20040;-76
2022/03/24 08:34:57;;;;;;;60.28;31.35;;;9.20;99.90;;;;;;5034478;28;20045;-74
2022/03/24 08:37:23;;;;;;;54.05;28.98;;;9.30;99.90;;;;;;5019826;28;20462;-76
2022/03/24 08:39:48;;;;;;;57.65;31.30;;;9.40;99.90;;;;;;5039178;28;20094;-77
2022/03/24 08:42:14;;;;;;;50.75;28.52;;;9.50;99.90;;;;;;5053843;28;20170;-77
2022/03/24 08:44:40;;;;;;;54.58;29.55;;;9.70;99.90;;;;;;5061655;28;20044;-75
2022/03/24 08:47:06;;;;;;;51.42;29.08;;;9.80;99.90;;;;;;5051000;28;20059;-76
2022/03/24 08:49:32;;;;;;;;;;;9.90;99.90;;;;;;5051116;28;20060;-77
2022/03/24 08:51:58;;;;;;;54.22;27.02;;;10.00;99.90;;;;;;5050536;28;19920;-75
2022/03/24 08:54:24;;;;;;;;;;;10.10;99.90;;;;;;5054111;28;20084;-75
2022/03/24 08:56:50;;;;;;;56.42;27.67;;;10.30;99.90;;;;;;5053150;28;20266;-76
2022/03/24 08:59:16;;;;;;;56.55;29.35;;;10.30;99.90;;;;;;5072711;28;20048;-76
2022/03/24 09:01:43;;;;;;;52.33;26.02;;;10.50;99.90;;;;;;5044313;28;20644;-74
2022/03/24 09:04:10;;;;;;;56.40;28.10;;;10.60;99.90;;;;;;5048261;28;20040;-76
2022/03/24 09:06:37;;;;;;;54.13;29.15;;;10.70;99.90;;;;;;5035462;28;20095;-75
2022/03/24 09:09:04;;;;;;;51.80;27.50;;;10.80;99.90;;;;;;5053415;28;20641;-76
2022/03/24 09:11:29;;;;;;;55.58;30.60;;;10.90;99.90;;;;;;5054904;28;20044;-75
2022/03/24 09:13:56;;;;;;;52.45;29.40;;;11.10;99.90;;;;;;5036931;28;20036;-75
2022/03/24 09:16:22;;;;;;;48.67;27.48;;;11.20;99.90;;;;;;5053362;28;20151;-75
2022/03/24 09:18:48;;;;;;;58.85;30.38;;;11.40;99.90;;;;;;5038962;28;20477;-75
2022/03/24 09:21:16;;;;;;;56.47;29.83;;;11.50;99.90;;;;;;5039792;28;20519;-75
2022/03/24 09:23:41;;;;;;;54.42;29.73;;;11.70;99.90;;;;;;5020651;28;20051;-74
2022/03/24 09:26:08;;;;;;;57.97;28.02;;;11.80;99.90;;;;;;5052988;28;20124;-76
2022/03/24 09:28:33;;;;;;;;;;;11.90;99.90;;;;;;5017572;28;20032;-75
2022/03/24 09:30:59;;;;;;;50.08;27.38;;;12.00;99.90;;;;;;5010173;28;20547;-76
2022/03/24 09:33:25;;;;;;;47.42;26.63;;;12.10;99.90;;;;;;5053114;28;20052;-76
2022/03/24 09:35:51;;;;;;;49.08;26.55;;;12.20;99.90;;;;;;5053534;28;20059;-75
2022/03/24 09:38:17;;;;;;;48.45;27.45;;;12.30;99.90;;;;;;5050178;28;20541;-76
2022/03/24 09:40:45;;;;;;;54.97;26.80;;;12.40;99.90;;;;;;5053010;28;20629;-74
2022/03/24 09:43:15;;;;;;;53.10;27.52;;;12.50;99.90;;;;;;5047848;28;20089;-75
2022/03/24 09:45:42;;;;;;;58.80;30.58;;;12.70;99.90;;;;;;5053195;28;20110;-76
2022/03/24 09:48:10;;;;;;;54.47;28.00;;;12.80;99.90;;;;;;5052965;28;20397;-74
2022/03/24 09:50:37;;;;;;;55.65;28.42;;;12.90;99.90;;;;;;5051395;28;20048;-75
2022/03/24 09:53:03;;;;;;;;;;;12.90;99.90;;;;;;5032979;28;20389;-75
2022/03/24 09:55:32;;;;;;;47.97;27.23;;;13.00;99.90;;;;;;5051481;28;19916;-75
2022/03/24 09:58:02;;;;;;;53.58;27.25;;;13.20;99.90;;;;;;5044215;28;20072;-72
2022/03/24 10:00:28;;;;;;;49.85;29.02;;;13.30;99.90;;;;;;5060154;28;20036;-75
2022/03/24 10:03:12;;;;;;;46.92;26.85;;;13.40;99.90;;;;;;5031035;28;20546;-76
2022/03/24 10:05:57;;;;;;;52.35;28.00;;;13.50;99.90;;;;;;5039594;28;20387;-75
2022/03/24 10:08:24;;;;;;;45.10;26.25;;;13.60;99.90;;;;;;5034168;28;20456;-75
2022/03/24 10:10:50;;;;;;;60.10;28.38;;;13.70;99.90;;;;;;5019409;28;20048;-75
2022/03/24 10:13:40;;;;;;;;;;;13.70;99.90;;;;;;5054317;28;20432;-75
2022/03/24 10:16:06;;;;;;;52.53;26.48;;;13.80;99.90;;;;;;5051778;28;19962;-76
2022/03/24 10:18:32;;;;;;;52.60;27.13;;;13.90;99.90;;;;;;5034628;28;20428;-74
2022/03/24 10:21:00;;;;;;;43.63;26.60;;;14.00;99.90;;;;;;5035021;28;20051;-73
2022/03/24 10:23:26;;;;;;;58.40;28.73;;;14.10;99.90;;;;;;5050117;28;20123;-74
2022/03/24 10:25:52;;;;;;;48.17;26.23;;;14.10;99.90;;;;;;5024589;28;20519;-77
2022/03/24 10:28:19;;;;;;;49.75;26.65;;;14.20;99.90;;;;;;5053747;28;20048;-74
2022/03/24 10:30:53;;;;;;;53.30;27.45;;;14.30;99.90;;;;;;5051602;28;20462;-75
2022/03/24 10:33:30;;;;;;;53.95;27.45;;;14.30;99.90;;;;;;5052779;28;20047;-74
2022/03/24 10:36:04;;;;;;;43.47;24.40;;;14.40;99.90;;;;;;5054343;28;20084;-75
2022/03/24 10:38:32;;;;;;;48.92;24.98;;;14.50;99.90;;;;;;5048307;28;20106;-76
2022/03/24 10:41:18;;;;;;;48.58;24.83;;;14.50;99.90;;;;;;5051902;28;20036;-75
2022/03/24 10:43:44;;;;;;;48.83;25.77;;;14.70;99.90;;;;;;5036427;28;20043;-76
2022/03/24 10:46:22;;;;;;;47.47;26.13;;;14.70;99.90;;;;;;5035794;28;20063;-73
2022/03/24 10:48:49;;;;;;;42.78;23.55;;;14.80;99.90;;;;;;5052267;28;20466;-75
2022/03/24 10:51:31;;;;;;;41.88;23.58;;;14.80;99.90;;;;;;5072791;28;20045;-77
2022/03/24 10:54:15;;;;;;;39.80;21.15;;;14.90;99.90;;;;;;5045419;28;20119;-77
2022/03/24 10:57:03;;;;;;;45.75;22.95;;;15.00;99.90;;;;;;5050591;28;20045;-75
2022/03/24 10:59:34;;;;;;;43.20;22.40;;;15.00;99.90;;;;;;5052247;28;20423;-75
2022/03/24 11:02:01;;;;;;;42.90;23.52;;;15.10;99.90;;;;;;5048110;28;20130;-76
2022/03/24 11:04:27;;;;;;;43.03;23.60;;;15.20;99.90;;;;;;5048771;28;20481;-76
2022/03/24 11:06:53;;;;;;;32.92;17.65;;;15.30;99.90;;;;;;5033772;28;20147;-76
2022/03/24 11:09:23;;;;;;;44.60;23.05;;;15.40;99.90;;;;;;5051809;28;20584;-76
2022/03/24 11:12:27;;;;;;;46.45;23.90;;;15.40;99.90;;;;;;5034964;28;20051;-76
2022/03/24 11:14:59;;;;;;;38.22;19.98;;;15.50;99.90;;;;;;5054887;28;20047;-75
2022/03/24 11:17:27;;;;;;;40.60;23.38;;;15.50;99.40;;;;;;5053451;28;20469;-75
2022/03/24 11:20:04;;;;;;;39.80;24.23;;;15.50;99.00;;;;;;5054779;28;20127;-75
2022/03/24 11:23:01;;;;;;;42.83;24.15;;;15.60;98.80;;;;;;5055727;28;20045;-75
2022/03/24 11:25:29;;;;;;;47.13;24.50;;;15.60;97.80;;;;;;5023806;28;20083;-76
2022/03/24 11:27:58;;;;;;;45.45;24.02;;;15.60;96.70;;;;;;5055748;28;20044;-77
2022/03/24 11:30:25;;;;;;;43.17;23.85;;;15.60;96.50;;;;;;5073606;28;20113;-77
2022/03/24 11:32:57;;;;;;;40.88;24.90;;;15.60;96.90;;;;;;5047848;28;20041;-74
2022/03/24 11:35:24;;;;;;;47.45;26.48;;;15.60;97.20;;;;;;5054022;28;20074;-74
2022/03/24 11:37:51;;;;;;;39.75;22.67;;;15.60;96.70;;;;;;5040856;28;20106;-76
2022/03/24 11:40:19;;;;;;;42.63;23.55;;;15.60;97.10;;;;;;5059317;28;20040;-77
2022/03/24 11:42:50;;;;;;;40.13;23.13;;;15.70;96.00;;;;;;5054804;28;20428;-74
2022/03/24 11:45:21;;;;;;;46.88;25.33;;;15.80;95.30;;;;;;5055441;28;20050;-75
2022/03/24 11:47:53;;;;;;;47.78;24.65;;;15.80;95.80;;;;;;5049957;28;20049;-74
2022/03/24 11:50:44;;;;;;;45.90;24.58;;;15.70;95.30;;;;;;5042094;28;20385;-76
2022/03/24 11:53:14;;;;;;;42.58;22.73;;;15.70;93.40;;;;;;5071007;28;20048;-76
2022/03/24 11:55:43;;;;;;;41.28;23.05;;;15.70;93.50;;;;;;5057014;28;20048;-75
2022/03/24 11:58:09;;;;;;;39.78;24.60;;;15.80;93.70;;;;;;5054408;28;20497;-77
2022/03/24 12:00:36;;;;;;;39.22;21.65;;;15.80;93.50;;;;;;5058491;28;20055;-76
2022/03/24 12:03:22;;;;;;;39.47;24.08;;;15.90;92.50;;;;;;5037097;28;20084;-74
2022/03/24 12:05:55;;;;;;;40.88;24.77;;;15.80;92.50;;;;;;5070589;28;20040;-74
2022/03/24 12:08:31;;;;;;;38.05;22.10;;;15.90;92.00;;;;;;5051902;28;20047;-77
2022/03/24 12:10:56;;;;;;;35.70;22.05;;;15.90;90.90;;;;;;5068109;28;20350;-75
2022/03/24 12:13:22;;;;;;;37.22;21.10;;;15.90;91.50;;;;;;5053862;28;20051;-75
2022/03/24 12:16:17;;;;;;;;;;;16.00;91.30;;;;;;5053624;28;20036;-76
2022/03/24 12:18:43;;;;;;;36.25;20.58;;;16.00;91.00;;;;;;5051937;28;19916;-76
2022/03/24 12:21:19;;;;;;;35.47;20.73;;;16.00;91.10;;;;;;5054504;28;20063;-74
2022/03/24 12:24:20;;;;;;;39.50;21.60;;;16.00;90.70;;;;;;5043531;28;20131;-75
2022/03/24 12:26:53;;;;;;;44.33;23.90;;;16.10;90.60;;;;;;4972408;28;20381;-76
2022/03/24 12:29:24;;;;;;;38.03;22.92;;;16.20;91.40;;;;;;5023771;28;20137;-75
2022/03/24 12:32:10;;;;;;;34.67;20.50;;;16.20;90.30;;;;;;5058488;28;20094;-75
2022/03/24 12:34:44;;;;;;;39.78;23.60;;;16.20;86.80;;;;;;5045199;28;20040;-77
2022/03/24 12:37:49;;;;;;;42.67;21.42;;;16.20;86.10;;;;;;5035680;28;20083;-75
2022/03/24 12:40:16;;;;;;;35.05;19.92;;;16.20;85.30;;;;;;5054488;28;20111;-74
2022/03/24 12:42:49;;;;;;;36.13;20.50;;;16.30;88.00;;;;;;5087804;28;20302;-74
2022/03/24 12:45:27;;;;;;;32.78;19.23;;;16.40;85.30;;;;;;5072186;28;20156;-76
2022/03/24 12:48:07;;;;;;;34.42;19.13;;;16.40;84.90;;;;;;5053056;28;20041;-76
2022/03/24 12:50:41;;;;;;;29.35;18.70;;;16.60;84.10;;;;;;5058211;28;20120;-77
2022/03/24 12:53:08;;;;;;;39.55;22.02;;;16.60;80.70;;;;;;5055897;28;20066;-75